Time;durP1;ratioP1;P1;durP2;ratioP2;P2;SDS_P1;SDS_P2;PMS_P1;PMS_P2;Temp;Humidity;BMP_temperature;BMP_pressure;BME280_temperature;BME280_humidity;BME280_pressure;Samples;Min_cycle;Max_cycle;Signal;HPM_P1;HPM_P2
2022/08/04 04:01:52;;;;;;;5.40;5.00;;;20.30;99.90;;;;;;5421121;23;20514;-69
2022/08/04 04:04:45;;;;;;;7.33;5.80;;;20.30;99.90;;;;;;4933069;29;20475;-69
2022/08/04 04:07:33;;;;;;;5.30;5.00;;;20.30;99.90;;;;;;4926688;29;20492;-69
2022/08/04 04:10:39;;;;;;;6.53;6.00;;;20.30;99.90;;;;;;4924525;29;20963;-69
2022/08/04 04:13:29;;;;;;;6.00;5.50;;;20.30;99.90;;;;;;4897934;29;20469;-69
2022/08/04 04:16:21;;;;;;;6.27;5.53;;;20.30;99.90;;;;;;4912845;29;20466;-68
2022/08/04 04:19:28;;;;;;;7.90;5.40;;;20.30;99.90;;;;;;4899415;29;20481;-69
2022/08/04 04:22:06;;;;;;;6.80;6.07;;;20.30;99.90;;;;;;4869304;29;20527;-68
2022/08/04 04:24:57;;;;;;;5.80;5.40;;;20.40;99.90;;;;;;4906658;29;20478;-68
2022/08/04 04:27:39;;;;;;;5.37;4.97;;;20.40;99.90;;;;;;4906825;29;20500;-68
2022/08/04 04:30:08;;;;;;;6.63;5.97;;;20.40;99.90;;;;;;4902903;29;20565;-68
2022/08/04 04:32:48;;;;;;;5.63;5.17;;;20.50;99.90;;;;;;4907651;29;21011;-68
2022/08/04 04:35:35;;;;;;;6.07;5.57;;;20.50;99.90;;;;;;4913963;29;20534;-69
2022/08/04 04:38:32;;;;;;;6.60;5.33;;;20.50;99.90;;;;;;4912974;29;20544;-68
2022/08/04 04:41:08;;;;;;;10.83;6.43;;;20.50;99.90;;;;;;4902839;29;20492;-68
2022/08/04 04:43:57;;;;;;;5.40;4.90;;;20.70;99.90;;;;;;4913351;29;21044;-71
2022/08/04 04:46:34;;;;;;;6.17;5.67;;;21.00;99.90;;;;;;4913844;29;20470;-68
2022/08/04 04:49:08;;;;;;;5.53;5.13;;;21.40;99.90;;;;;;4907272;29;20966;-68
2022/08/04 04:51:42;;;;;;;6.10;4.30;;;22.00;99.90;;;;;;4913789;29;20559;-68
2022/08/04 04:54:18;;;;;;;6.60;5.13;;;22.60;99.90;;;;;;4914222;29;20490;-69
2022/08/04 04:56:48;;;;;;;8.00;5.07;;;23.10;99.90;;;;;;4899141;29;20470;-68
2022/08/04 04:59:20;;;;;;;4.67;4.27;;;23.20;99.90;;;;;;4912290;29;20470;-68
2022/08/04 05:02:07;;;;;;;5.17;4.60;;;23.10;99.90;;;;;;4909358;29;20502;-69
2022/08/04 05:04:52;;;;;;;4.63;4.20;;;23.40;99.90;;;;;;4914579;29;20544;-69
2022/08/04 05:07:45;;;;;;;4.97;4.57;;;24.00;99.90;;;;;;4910374;29;20491;-68
2022/08/04 05:10:27;;;;;;;7.93;4.80;;;24.50;99.90;;;;;;4909790;29;20474;-69
2022/08/04 05:13:09;;;;;;;4.97;4.50;;;24.90;99.90;;;;;;4907846;29;20471;-68
2022/08/04 05:15:41;;;;;;;6.23;4.77;;;25.00;99.90;;;;;;4915487;29;20470;-68
2022/08/04 05:18:14;;;;;;;4.80;4.50;;;24.90;99.90;;;;;;4913141;29;20459;-68
2022/08/04 05:20:46;;;;;;;5.20;4.73;;;24.80;99.90;;;;;;4914662;29;20482;-68
2022/08/04 05:23:18;;;;;;;5.80;5.30;;;24.70;99.90;;;;;;4910161;29;20480;-68
2022/08/04 05:25:51;;;;;;;5.50;5.10;;;24.40;99.90;;;;;;4906299;29;20522;-67
2022/08/04 05:28:21;;;;;;;6.40;5.17;;;24.10;99.90;;;;;;4908811;29;20501;-68
2022/08/04 05:30:53;;;;;;;6.10;5.57;;;23.80;99.90;;;;;;4915151;29;20493;-69
2022/08/04 05:33:25;;;;;;;7.73;5.37;;;23.70;99.90;;;;;;4913000;29;20496;-68
2022/08/04 05:35:56;;;;;;;5.77;5.23;;;23.60;99.90;;;;;;4915188;29;20518;-69
2022/08/04 05:38:36;;;;;;;5.90;5.33;;;23.50;99.90;;;;;;4910117;29;20802;-68
2022/08/04 05:41:03;;;;;;;5.30;5.00;;;23.50;99.90;;;;;;4912325;29;20499;-70
2022/08/04 05:43:30;;;;;;;5.27;4.77;;;23.50;99.90;;;;;;4912526;29;20484;-70
2022/08/04 05:45:58;;;;;;;5.47;5.07;;;23.40;99.90;;;;;;4904991;29;20480;-70
2022/08/04 05:48:26;;;;;;;5.50;4.90;;;23.40;99.90;;;;;;4909526;29;20609;-69
2022/08/04 05:50:53;;;;;;;6.77;4.67;;;23.40;99.90;;;;;;4912716;29;20889;-70
2022/08/04 05:53:21;;;;;;;5.43;4.93;;;23.30;99.90;;;;;;4906191;29;20486;-70
2022/08/04 05:55:50;;;;;;;4.90;4.40;;;23.30;99.90;;;;;;4910273;29;20581;-73
2022/08/04 05:58:17;;;;;;;6.03;4.60;;;23.30;99.90;;;;;;4906246;29;20474;-70
2022/08/04 06:00:45;;;;;;;5.40;5.00;;;23.30;99.90;;;;;;4914593;29;20504;-70
2022/08/04 06:03:13;;;;;;;6.60;5.00;;;23.40;99.90;;;;;;4913620;29;20481;-69
2022/08/04 06:05:43;;;;;;;5.50;5.00;;;23.40;99.90;;;;;;4910386;29;21000;-70
2022/08/04 06:08:09;;;;;;;5.70;5.40;;;23.40;99.90;;;;;;4911364;29;20492;-70
2022/08/04 06:10:38;;;;;;;6.17;5.03;;;23.40;99.90;;;;;;4914989;29;20499;-70
2022/08/04 06:13:09;;;;;;;4.57;4.10;;;23.60;99.90;;;;;;4919204;29;20478;-70
2022/08/04 06:15:40;;;;;;;5.37;4.80;;;24.10;99.90;;;;;;4919589;29;20477;-70
2022/08/04 06:18:09;;;;;;;6.60;4.20;;;24.90;99.90;;;;;;4918343;29;20482;-70
2022/08/04 06:20:38;;;;;;;4.30;3.90;;;25.80;99.90;;;;;;4919359;29;20510;-70
2022/08/04 06:23:09;;;;;;;4.77;3.17;;;26.50;99.90;;;;;;4922667;29;20462;-69
2022/08/04 06:25:42;;;;;;;3.40;3.27;;;27.20;99.90;;;;;;4903931;29;20476;-68
2022/08/04 06:28:12;;;;;;;11.70;3.73;;;27.60;99.90;;;;;;4910881;29;20486;-70
2022/08/04 06:30:41;;;;;;;5.20;3.33;;;27.80;99.90;;;;;;4918087;29;20498;-70
2022/08/04 06:33:23;;;;;;;4.17;3.70;;;28.20;99.90;;;;;;4931085;29;20474;-70
2022/08/04 06:35:52;;;;;;;3.50;3.17;;;28.80;99.90;;;;;;4928932;29;20506;-70
2022/08/04 06:38:20;;;;;;;3.30;3.10;;;29.10;99.90;;;;;;4924403;29;20471;-69
2022/08/04 06:40:47;;;;;;;4.37;3.97;;;28.90;99.90;;;;;;4917465;29;20552;-69
2022/08/04 06:43:16;;;;;;;3.33;3.23;;;28.70;99.90;;;;;;4916867;29;20492;-70
2022/08/04 06:45:44;;;;;;;10.70;4.17;;;28.70;99.90;;;;;;4917498;29;20477;-69
2022/08/04 06:48:14;;;;;;;4.73;3.27;;;29.00;99.90;;;;;;4915353;29;20489;-68
2022/08/04 06:50:44;;;;;;;3.90;3.10;;;29.70;99.90;;;;;;4904575;29;21002;-69
2022/08/04 06:53:11;;;;;;;3.67;3.50;;;30.40;99.90;;;;;;4911659;29;20905;-68
2022/08/04 06:55:38;;;;;;;4.37;3.27;;;31.10;99.90;;;;;;4913009;29;20486;-69
2022/08/04 06:58:06;;;;;;;3.67;3.40;;;31.50;99.90;;;;;;4914818;29;20513;-69
2022/08/04 07:00:35;;;;;;;3.77;3.47;;;32.10;99.90;;;;;;4909109;29;20512;-70
2022/08/04 07:03:03;;;;;;;3.23;3.03;;;32.50;99.90;;;;;;4905236;29;20474;-69
2022/08/04 07:05:30;;;;;;;4.27;3.87;;;32.70;99.90;;;;;;4913514;29;20843;-69
2022/08/04 07:07:57;;;;;;;5.93;3.77;;;33.00;99.90;;;;;;4914373;29;20486;-68
2022/08/04 07:10:26;;;;;;;5.13;4.17;;;33.20;99.90;;;;;;4913328;29;20502;-69
2022/08/04 07:12:53;;;;;;;5.83;4.13;;;33.20;99.90;;;;;;4915775;29;20492;-68
2022/08/04 07:15:21;;;;;;;3.30;3.20;;;33.30;99.90;;;;;;4914747;29;20480;-69
2022/08/04 07:17:50;;;;;;;6.07;3.50;;;33.40;99.90;;;;;;4915364;29;20462;-69
2022/08/04 07:20:18;;;;;;;5.80;3.67;;;33.70;99.90;;;;;;4913221;29;20847;-68
2022/08/04 07:22:47;;;;;;;3.40;3.30;;;33.80;99.90;;;;;;4915500;29;20537;-70
2022/08/04 07:25:15;;;;;;;3.30;3.03;;;33.60;99.90;;;;;;4916470;29;20855;-69
2022/08/04 07:27:42;;;;;;;3.70;3.43;;;33.50;99.90;;;;;;4916331;29;20513;-68
2022/08/04 07:30:10;;;;;;;3.87;3.67;;;33.30;99.90;;;;;;4914651;29;20497;-69
2022/08/04 07:32:38;;;;;;;3.30;3.20;;;33.40;99.90;;;;;;4915020;29;20532;-69
2022/08/04 07:35:08;;;;;;;3.63;3.43;;;33.50;99.90;;;;;;4915505;29;20466;-68
2022/08/04 07:37:35;;;;;;;2.97;2.80;;;33.50;99.90;;;;;;4909512;29;20825;-69
2022/08/04 07:40:02;;;;;;;3.80;2.80;;;33.50;99.90;;;;;;4899403;29;20552;-68
2022/08/04 07:42:29;;;;;;;2.47;2.47;;;33.90;99.90;;;;;;4914488;29;20490;-68
2022/08/04 07:44:55;;;;;;;3.80;2.80;;;33.70;99.90;;;;;;4908593;29;20860;-69
2022/08/04 07:47:22;;;;;;;3.27;3.07;;;33.40;99.90;;;;;;4913400;29;20473;-69
2022/08/04 07:49:49;;;;;;;3.33;2.90;;;33.40;99.90;;;;;;4916201;29;20822;-69
2022/08/04 07:52:17;;;;;;;3.43;3.07;;;33.50;99.90;;;;;;4914092;29;20541;-68
2022/08/04 07:54:45;;;;;;;5.47;3.07;;;33.40;99.90;;;;;;4908833;29;20492;-69
2022/08/04 07:57:12;;;;;;;3.30;3.10;;;33.10;99.90;;;;;;4912937;29;20780;-69
2022/08/04 07:59:38;;;;;;;3.50;3.40;;;32.90;99.90;;;;;;4913078;29;20971;-68
2022/08/04 08:02:05;;;;;;;3.60;3.37;;;32.60;99.90;;;;;;4915738;29;20847;-70
2022/08/04 08:04:32;;;;;;;3.70;3.50;;;32.50;99.90;;;;;;4913247;29;20545;-69
2022/08/04 08:06:59;;;;;;;4.50;4.10;;;32.30;99.90;;;;;;4909228;29;20960;-69
2022/08/04 08:09:27;;;;;;;4.03;3.73;;;32.10;99.90;;;;;;4908466;29;20493;-68
2022/08/04 08:11:54;;;;;;;4.40;4.10;;;31.80;99.90;;;;;;4908830;29;20499;-68
2022/08/04 08:14:21;;;;;;;3.40;3.30;;;31.50;99.90;;;;;;4907870;29;20482;-68
2022/08/04 08:16:48;;;;;;;3.80;3.60;;;31.50;99.90;;;;;;4915121;29;20833;-69
2022/08/04 08:19:15;;;;;;;3.40;3.30;;;31.50;99.90;;;;;;4914536;29;20550;-67
2022/08/04 08:21:48;;;;;;;4.47;3.30;;;31.50;99.90;;;;;;4909741;29;20502;-69
2022/08/04 08:24:15;;;;;;;3.07;3.07;;;31.60;99.90;;;;;;4910823;29;20531;-68
2022/08/04 08:26:43;;;;;;;3.63;3.53;;;31.60;99.90;;;;;;4914578;29;20592;-69
2022/08/04 08:29:10;;;;;;;3.90;3.70;;;31.60;99.90;;;;;;4913119;29;20501;-69
2022/08/04 08:31:37;;;;;;;4.50;3.63;;;31.40;99.90;;;;;;4914577;29;20487;-68
2022/08/04 08:34:04;;;;;;;4.13;3.83;;;31.40;99.90;;;;;;4913479;29;20487;-69
2022/08/04 08:36:36;;;;;;;3.77;3.37;;;31.40;99.90;;;;;;4906902;29;21013;-68
2022/08/04 08:39:10;;;;;;;3.47;3.37;;;31.40;99.90;;;;;;4913879;29;20535;-69
2022/08/04 08:42:15;;;;;;;3.80;3.70;;;31.30;99.60;;;;;;4908496;29;20499;-70
2022/08/04 08:45:30;;;;;;;3.60;3.40;;;31.30;99.70;;;;;;4896501;29;20473;-68
2022/08/04 08:48:16;;;;;;;4.20;4.00;;;31.20;99.90;;;;;;4915345;29;20465;-71
2022/08/04 08:51:02;;;;;;;3.40;3.30;;;31.20;99.10;;;;;;4914289;29;20507;-69
2022/08/04 08:53:50;;;;;;;3.70;3.50;;;31.30;99.90;;;;;;4913278;29;20462;-70
2022/08/04 08:56:31;;;;;;;4.00;3.80;;;31.40;97.00;;;;;;4913529;29;20471;-71
2022/08/04 08:59:22;;;;;;;3.37;3.37;;;31.40;96.50;;;;;;4910573;29;20463;-68
2022/08/04 09:02:02;;;;;;;4.37;3.67;;;31.30;96.10;;;;;;4892105;29;20586;-68
2022/08/04 09:04:49;;;;;;;3.80;3.50;;;31.10;95.80;;;;;;4909962;29;20486;-69
2022/08/04 09:07:34;;;;;;;3.77;3.47;;;31.30;95.30;;;;;;4908054;29;21174;-69
2022/08/04 09:10:12;;;;;;;3.77;3.57;;;31.20;94.50;;;;;;4913325;29;20488;-69
2022/08/04 09:12:46;;;;;;;3.53;3.43;;;31.00;94.40;;;;;;4914164;29;20471;-70
2022/08/04 09:15:18;;;;;;;3.77;3.47;;;30.90;94.70;;;;;;4913317;29;20881;-70
2022/08/04 09:17:51;;;;;;;3.43;3.23;;;30.90;95.50;;;;;;4907281;29;20973;-70
2022/08/04 09:20:28;;;;;;;3.63;3.53;;;31.00;94.10;;;;;;4908306;29;20563;-69
2022/08/04 09:23:05;;;;;;;3.37;3.27;;;31.10;93.90;;;;;;4908949;29;20471;-70
2022/08/04 09:25:40;;;;;;;3.10;3.07;;;31.30;94.70;;;;;;4907720;29;20470;-69
2022/08/04 09:28:18;;;;;;;3.63;3.47;;;31.50;94.40;;;;;;4914577;29;20464;-76
2022/08/04 09:30:51;;;;;;;3.50;3.50;;;31.50;93.40;;;;;;4910028;29;20500;-72
2022/08/04 09:33:28;;;;;;;3.70;3.50;;;31.50;93.30;;;;;;4914333;29;20510;-69
2022/08/04 09:36:01;;;;;;;3.90;3.60;;;31.70;93.40;;;;;;4903938;29;20913;-70
2022/08/04 09:38:34;;;;;;;3.77;3.47;;;31.80;91.30;;;;;;4913871;29;20481;-70
2022/08/04 09:41:10;;;;;;;3.10;3.00;;;31.90;91.50;;;;;;4907920;29;20492;-70
2022/08/04 09:43:48;;;;;;;3.60;3.50;;;31.90;91.90;;;;;;4914988;29;20468;-70
2022/08/04 09:46:19;;;;;;;3.23;3.13;;;31.90;91.10;;;;;;4914253;29;20544;-69
2022/08/04 09:48:54;;;;;;;3.30;3.20;;;31.90;91.40;;;;;;4910037;29;21005;-70
2022/08/04 09:51:36;;;;;;;3.47;3.47;;;31.80;90.90;;;;;;4912307;29;20855;-70
2022/08/04 09:54:09;;;;;;;4.30;4.10;;;32.00;91.70;;;;;;4909258;29;20959;-69
2022/08/04 09:56:41;;;;;;;4.00;3.60;;;32.00;92.30;;;;;;4912793;29;20473;-70
2022/08/04 09:59:21;;;;;;;3.97;3.67;;;32.20;91.50;;;;;;4895438;29;20468;-70
2022/08/04 10:01:54;;;;;;;3.53;3.43;;;32.20;92.40;;;;;;4906092;29;20508;-70
2022/08/04 10:04:24;;;;;;;4.13;3.83;;;32.20;92.60;;;;;;4910987;29;20474;-69
2022/08/04 10:07:30;;;;;;;4.40;4.10;;;32.20;92.70;;;;;;4905073;29;20472;-69
2022/08/04 10:10:11;;;;;;;4.23;3.93;;;32.40;91.90;;;;;;4909301;29;20807;-70
2022/08/04 10:12:50;;;;;;;4.03;4.03;;;32.50;91.80;;;;;;4907178;29;20634;-71
2022/08/04 10:15:20;;;;;;;4.40;4.10;;;32.50;92.10;;;;;;4912168;29;20902;-70
2022/08/04 10:18:03;;;;;;;4.40;4.30;;;32.50;92.30;;;;;;4905860;29;20851;-70
2022/08/04 10:20:49;;;;;;;4.30;4.10;;;32.70;91.70;;;;;;4932776;23;21003;-75
2022/08/04 10:23:26;;;;;;;4.60;4.50;;;32.80;91.60;;;;;;4914503;29;20793;-74
2022/08/04 10:26:05;;;;;;;4.20;4.03;;;32.90;91.30;;;;;;4917785;29;20482;-74
2022/08/04 10:28:41;;;;;;;4.20;4.10;;;33.00;91.40;;;;;;4922957;29;20497;-74
2022/08/04 10:31:12;;;;;;;4.80;4.50;;;32.80;91.10;;;;;;4924765;29;20672;-74
2022/08/04 10:33:50;;;;;;;4.30;4.20;;;32.70;91.60;;;;;;4912412;29;20478;-74
2022/08/04 10:36:22;;;;;;;4.70;4.20;;;32.80;90.90;;;;;;4921375;29;20488;-76
2022/08/04 10:39:01;;;;;;;4.60;4.30;;;32.80;90.50;;;;;;4921918;29;20915;-73
2022/08/04 10:41:36;;;;;;;4.10;4.00;;;32.70;89.00;;;;;;4913514;29;20576;-77
2022/08/04 10:44:15;;;;;;;3.77;3.57;;;32.70;88.80;;;;;;4912844;29;20886;-74
2022/08/04 10:46:47;;;;;;;4.07;3.97;;;32.90;89.20;;;;;;4911860;29;20905;-73
2022/08/04 10:49:23;;;;;;;4.00;3.90;;;33.20;87.10;;;;;;4920469;29;20540;-75
2022/08/04 10:51:54;;;;;;;3.90;3.80;;;33.30;86.40;;;;;;4910658;29;20509;-74
2022/08/04 10:54:27;;;;;;;4.10;3.90;;;33.40;85.10;;;;;;4920060;29;22157;-76
2022/08/04 10:56:57;;;;;;;4.80;4.60;;;33.40;85.40;;;;;;4922470;29;20477;-76
2022/08/04 10:59:28;;;;;;;3.87;3.73;;;33.30;84.70;;;;;;4909385;29;20475;-75
2022/08/04 11:02:03;;;;;;;3.87;3.77;;;33.50;83.40;;;;;;4908327;29;20930;-75
2022/08/04 11:04:41;;;;;;;3.70;3.60;;;33.70;81.30;;;;;;4923506;29;20473;-76
2022/08/04 11:07:10;;;;;;;3.50;3.33;;;33.90;81.70;;;;;;4921321;29;20473;-74
2022/08/04 11:09:39;;;;;;;3.33;3.33;;;34.20;79.60;;;;;;4917240;29;20886;-75
2022/08/04 11:12:14;;;;;;;4.10;3.60;;;34.30;77.40;;;;;;4921083;29;20500;-74
2022/08/04 11:14:47;;;;;;;2.93;2.93;;;34.30;75.20;;;;;;4914952;29;20909;-75
2022/08/04 11:17:20;;;;;;;3.67;3.57;;;34.10;74.60;;;;;;4918032;29;20469;-75
2022/08/04 11:19:52;;;;;;;3.40;3.20;;;34.00;74.90;;;;;;4916448;29;20469;-75
2022/08/04 11:22:26;;;;;;;2.80;2.80;;;34.10;74.20;;;;;;4918746;29;21001;-75
2022/08/04 11:25:01;;;;;;;3.23;3.23;;;34.10;72.80;;;;;;4918963;29;20485;-75
2022/08/04 11:27:35;;;;;;;3.60;3.43;;;34.10;72.00;;;;;;4921434;29;20470;-75
2022/08/04 11:30:05;;;;;;;2.80;2.80;;;34.10;72.70;;;;;;4929230;29;20545;-72
2022/08/04 11:32:42;;;;;;;3.10;3.00;;;34.20;73.30;;;;;;4917245;29;20477;-76
2022/08/04 11:35:16;;;;;;;3.00;2.90;;;34.10;71.60;;;;;;4912217;29;20836;-75
2022/08/04 11:37:49;;;;;;;3.00;2.90;;;34.20;71.10;;;;;;4909503;29;20474;-75
2022/08/04 11:40:23;;;;;;;3.10;2.53;;;34.20;71.40;;;;;;4914872;29;20884;-75
2022/08/04 11:42:56;;;;;;;3.13;3.03;;;34.40;69.20;;;;;;4916599;29;20476;-75
2022/08/04 11:45:31;;;;;;;2.67;2.67;;;34.70;69.40;;;;;;4914158;29;20572;-74
2022/08/04 11:48:00;;;;;;;3.10;3.00;;;34.80;67.70;;;;;;4908532;29;20631;-76
2022/08/04 11:50:33;;;;;;;2.93;2.83;;;34.70;67.50;;;;;;4912977;29;20494;-75
2022/08/04 11:53:02;;;;;;;3.20;3.10;;;34.80;66.80;;;;;;4909884;29;20485;-75
2022/08/04 11:55:31;;;;;;;2.87;2.87;;;34.80;66.10;;;;;;4913352;29;21041;-75
2022/08/04 11:57:58;;;;;;;4.03;3.47;;;34.80;66.20;;;;;;4915868;29;20473;-76
2022/08/04 12:00:28;;;;;;;3.03;2.93;;;34.60;64.70;;;;;;4914476;29;20496;-74
2022/08/04 12:03:26;;;;;;;2.70;2.60;;;34.60;64.80;;;;;;4915291;29;20884;-75
2022/08/04 12:06:06;;;;;;;3.83;3.53;;;34.50;65.40;;;;;;4907273;29;20533;-75
2022/08/04 12:08:51;;;;;;;3.00;2.90;;;34.40;65.00;;;;;;4916403;29;20482;-74
2022/08/04 12:11:28;;;;;;;2.97;2.80;;;34.70;64.20;;;;;;4913515;29;20584;-74
2022/08/04 12:14:09;;;;;;;2.67;2.67;;;34.90;63.50;;;;;;4909600;29;20475;-74
2022/08/04 12:16:44;;;;;;;3.10;3.10;;;35.00;63.70;;;;;;4920875;29;20473;-74
2022/08/04 12:19:20;;;;;;;3.50;3.30;;;35.10;63.90;;;;;;4929630;29;20496;-75
2022/08/04 12:21:52;;;;;;;2.43;2.43;;;35.10;63.50;;;;;;4906464;29;20539;-74
2022/08/04 12:24:22;;;;;;;2.73;2.70;;;35.10;61.00;;;;;;4918341;29;20473;-75
2022/08/04 12:26:52;;;;;;;2.63;2.47;;;34.90;61.60;;;;;;4918646;29;20504;-75
2022/08/04 12:29:22;;;;;;;4.03;3.83;;;34.80;61.80;;;;;;4913772;29;20575;-75
2022/08/04 12:31:55;;;;;;;2.80;2.70;;;34.90;63.00;;;;;;4915693;29;20486;-74
2022/08/04 12:34:28;;;;;;;2.87;2.77;;;34.90;61.60;;;;;;4914971;29;20815;-73
2022/08/04 12:37:01;;;;;;;2.80;2.70;;;34.90;62.10;;;;;;4915353;29;20505;-74
2022/08/04 12:39:31;;;;;;;2.77;2.77;;;35.00;62.20;;;;;;4922514;29;20832;-75
2022/08/04 12:42:03;;;;;;;3.20;3.10;;;34.90;60.30;;;;;;4915363;29;21009;-74
2022/08/04 12:44:33;;;;;;;2.37;2.37;;;34.80;61.20;;;;;;4914906;29;20776;-74
2022/08/04 12:47:02;;;;;;;3.13;3.07;;;35.00;60.80;;;;;;4915466;29;20469;-76
2022/08/04 12:49:32;;;;;;;2.57;2.47;;;35.20;60.00;;;;;;4914855;29;20861;-74
2022/08/04 12:51:59;;;;;;;2.93;2.90;;;35.10;59.20;;;;;;4920219;29;20497;-74
2022/08/04 12:54:31;;;;;;;2.33;2.33;;;35.10;58.70;;;;;;4924370;29;20473;-74
2022/08/04 12:56:58;;;;;;;3.17;2.90;;;35.10;58.60;;;;;;4913653;29;20469;-75
2022/08/04 12:59:25;;;;;;;2.60;2.60;;;35.00;58.40;;;;;;4910742;29;20932;-75
2022/08/04 13:01:54;;;;;;;2.53;2.43;;;34.80;59.50;;;;;;4915113;29;20928;-75
2022/08/04 13:04:24;;;;;;;2.90;2.90;;;34.70;59.70;;;;;;4928741;29;20842;-75
2022/08/04 13:06:56;;;;;;;2.57;2.57;;;34.70;60.20;;;;;;4909381;29;20535;-75
2022/08/04 13:09:28;;;;;;;3.80;2.97;;;34.60;59.90;;;;;;4914334;29;20498;-75
2022/08/04 13:12:00;;;;;;;3.17;3.07;;;34.60;60.80;;;;;;4908955;29;20497;-76
2022/08/04 13:14:33;;;;;;;3.20;3.00;;;34.60;59.20;;;;;;4921070;29;20528;-75
2022/08/04 13:17:00;;;;;;;2.90;2.73;;;34.60;59.60;;;;;;4900433;29;20585;-75
2022/08/04 13:19:29;;;;;;;3.03;2.83;;;34.70;60.10;;;;;;4911888;29;20502;-75
2022/08/04 13:21:59;;;;;;;3.53;3.00;;;34.80;60.10;;;;;;4931404;29;20497;-75
2022/08/04 13:24:27;;;;;;;2.77;2.77;;;34.70;60.20;;;;;;4920316;29;20476;-76
2022/08/04 13:26:58;;;;;;;2.93;2.83;;;34.70;60.30;;;;;;4913869;29;20521;-76
2022/08/04 13:29:30;;;;;;;2.80;2.80;;;34.60;60.40;;;;;;4914091;29;20473;-76
2022/08/04 13:31:59;;;;;;;2.80;2.70;;;34.50;60.70;;;;;;4911152;29;20497;-76
2022/08/04 13:34:28;;;;;;;5.33;3.57;;;34.40;60.90;;;;;;4917186;29;20485;-75
2022/08/04 13:36:55;;;;;;;3.50;3.50;;;34.30;62.20;;;;;;4915222;29;20509;-76
2022/08/04 13:39:23;;;;;;;3.30;3.20;;;34.20;60.70;;;;;;4915725;29;20473;-75
2022/08/04 13:41:52;;;;;;;3.50;3.40;;;34.20;61.20;;;;;;4921038;29;20489;-75
2022/08/04 13:44:23;;;;;;;3.10;3.00;;;34.30;60.80;;;;;;4912891;29;20915;-75
2022/08/04 13:46:53;;;;;;;3.03;3.03;;;34.40;60.70;;;;;;4922421;29;20465;-75
2022/08/04 13:49:20;;;;;;;2.90;2.90;;;34.50;62.60;;;;;;4912701;29;20891;-75
2022/08/04 13:51:50;;;;;;;3.10;3.10;;;34.80;61.10;;;;;;4916981;29;20500;-75
2022/08/04 13:54:18;;;;;;;2.90;2.80;;;34.80;60.20;;;;;;4920224;29;20508;-75
2022/08/04 13:56:46;;;;;;;3.23;3.23;;;34.90;60.80;;;;;;4913068;29;20505;-75
2022/08/04 13:59:17;;;;;;;3.63;3.43;;;35.00;59.30;;;;;;4910964;29;20473;-75
2022/08/04 14:01:56;;;;;;;3.10;3.00;;;35.00;59.70;;;;;;4917144;29;20575;-75
2022/08/04 14:04:25;;;;;;;3.50;3.50;;;35.10;59.40;;;;;;4920162;29;20564;-75
2022/08/04 14:06:59;;;;;;;3.27;3.07;;;35.20;59.10;;;;;;4911680;29;20474;-75
2022/08/04 14:09:28;;;;;;;3.83;3.53;;;35.20;60.10;;;;;;4917362;29;20871;-75
2022/08/04 14:12:04;;;;;;;3.73;3.63;;;35.20;60.30;;;;;;4918728;29;20993;-75
2022/08/04 14:14:32;;;;;;;3.10;2.90;;;35.20;59.90;;;;;;4918485;29;20484;-75
2022/08/04 14:17:04;;;;;;;3.47;3.47;;;35.20;59.20;;;;;;4923664;29;20854;-76
2022/08/04 14:19:48;;;;;;;4.13;3.90;;;35.20;59.90;;;;;;4924589;29;20487;-76
2022/08/04 14:22:29;;;;;;;3.00;2.90;;;35.10;59.30;;;;;;4903326;29;21026;-75
2022/08/04 14:24:56;;;;;;;3.50;3.50;;;35.10;58.90;;;;;;4912953;29;20481;-76
2022/08/04 14:27:23;;;;;;;3.07;2.97;;;35.00;59.20;;;;;;4912082;29;20550;-75
2022/08/04 14:29:50;;;;;;;3.00;3.00;;;34.90;59.20;;;;;;4921250;29;20837;-75
2022/08/04 14:32:18;;;;;;;2.90;2.83;;;34.90;59.80;;;;;;4913084;29;20557;-75
2022/08/04 14:34:45;;;;;;;3.30;3.10;;;34.80;59.50;;;;;;4924830;29;20472;-75
2022/08/04 14:37:18;;;;;;;3.00;2.90;;;34.80;59.90;;;;;;4911972;29;20569;-75
2022/08/04 14:39:47;;;;;;;3.70;3.60;;;35.00;59.70;;;;;;4924061;29;20497;-76
2022/08/04 14:42:14;;;;;;;3.30;3.20;;;35.20;60.70;;;;;;4924112;29;20519;-75
2022/08/04 14:44:54;;;;;;;3.47;3.37;;;35.40;59.20;;;;;;4917679;29;21042;-74
2022/08/04 14:47:39;;;;;;;3.33;3.07;;;35.50;59.20;;;;;;4916536;29;20477;-75
2022/08/04 14:50:07;;;;;;;3.20;3.10;;;35.40;59.50;;;;;;4934110;29;20587;-75
2022/08/04 14:52:34;;;;;;;3.30;3.30;;;35.20;59.20;;;;;;4920020;29;20565;-75
2022/08/04 14:55:15;;;;;;;3.07;3.07;;;35.10;59.80;;;;;;4921408;29;20977;-75
2022/08/04 14:57:42;;;;;;;3.20;3.10;;;35.00;59.70;;;;;;4918888;29;20473;-74
2022/08/04 15:00:10;;;;;;;7.40;3.60;;;34.90;59.50;;;;;;4935058;29;20464;-76
2022/08/04 15:02:42;;;;;;;3.30;3.20;;;34.90;60.00;;;;;;4912902;29;20553;-75
2022/08/04 15:05:09;;;;;;;3.10;2.90;;;35.00;60.40;;;;;;4912256;29;21160;-75
2022/08/04 15:07:36;;;;;;;2.80;2.80;;;35.00;59.80;;;;;;4924783;29;20528;-75
2022/08/04 15:10:03;;;;;;;2.90;2.90;;;34.90;59.50;;;;;;4916181;29;20517;-75
2022/08/04 15:12:30;;;;;;;3.30;3.20;;;34.80;60.20;;;;;;4913664;29;20477;-75
2022/08/04 15:14:57;;;;;;;2.70;2.70;;;34.80;60.50;;;;;;4916568;29;20516;-76
2022/08/04 15:17:24;;;;;;;3.53;3.17;;;34.70;60.00;;;;;;4923505;29;20477;-75
2022/08/04 15:19:53;;;;;;;2.70;2.70;;;34.60;60.20;;;;;;4911796;29;20481;-75
2022/08/04 15:22:19;;;;;;;3.23;3.13;;;34.40;61.40;;;;;;4914937;29;20508;-74
2022/08/04 15:24:46;;;;;;;2.70;2.70;;;34.30;59.90;;;;;;4927623;29;20982;-75
2022/08/04 15:27:14;;;;;;;2.77;2.77;;;34.20;60.10;;;;;;4915407;29;20533;-75
2022/08/04 15:29:45;;;;;;;2.40;2.40;;;34.10;60.30;;;;;;4919660;29;20847;-75
2022/08/04 15:32:15;;;;;;;2.67;2.67;;;34.00;60.30;;;;;;4924695;29;20492;-75
2022/08/04 15:34:48;;;;;;;2.93;2.83;;;33.80;60.50;;;;;;4921972;29;20467;-76
2022/08/04 15:37:24;;;;;;;2.83;2.73;;;33.70;61.00;;;;;;4921966;29;20562;-75
2022/08/04 15:39:55;;;;;;;4.00;3.30;;;33.60;61.50;;;;;;4920180;29;20838;-75
2022/08/04 15:42:33;;;;;;;2.90;2.90;;;33.40;62.20;;;;;;4918642;29;20551;-75
2022/08/04 15:45:22;;;;;;;3.50;3.20;;;33.30;62.20;;;;;;4921140;29;20468;-75
2022/08/04 15:48:31;;;;;;;2.97;2.87;;;33.20;62.70;;;;;;4924402;29;20474;-75
2022/08/04 15:51:08;;;;;;;3.63;3.33;;;33.10;62.90;;;;;;4917568;29;20497;-75
2022/08/04 15:54:18;;;;;;;3.33;3.13;;;33.00;63.30;;;;;;4913806;29;20474;-75
2022/08/04 15:56:47;;;;;;;5.67;3.57;;;32.90;64.60;;;;;;4907927;29;20560;-73
2022/08/04 15:59:15;;;;;;;4.30;4.00;;;32.40;79.50;;;;;;4915694;29;20960;-73
2022/08/04 16:01:42;;;;;;;4.67;4.27;;;31.70;85.50;;;;;;4915987;29;20489;-74
2022/08/04 16:04:23;;;;;;;9.53;4.13;;;31.00;89.50;;;;;;4916256;29;20621;-75
2022/08/04 16:06:51;;;;;;;4.67;4.27;;;30.40;90.10;;;;;;4916024;29;20975;-74
2022/08/04 16:09:24;;;;;;;6.13;4.07;;;29.70;91.50;;;;;;4918258;29;20467;-75
2022/08/04 16:11:52;;;;;;;3.87;3.03;;;29.00;93.20;;;;;;4929833;29;20495;-76
2022/08/04 16:14:32;;;;;;;4.10;3.00;;;28.30;95.70;;;;;;4931239;29;20483;-75
2022/08/04 16:17:17;;;;;;;4.83;3.40;;;27.60;98.60;;;;;;4936308;29;20491;-74
2022/08/04 16:19:58;;;;;;;2.60;2.50;;;26.90;99.90;;;;;;4934451;29;20461;-75
2022/08/04 16:22:37;;;;;;;2.23;2.17;;;26.50;99.90;;;;;;4935572;29;20530;-76
2022/08/04 16:25:05;;;;;;;4.17;2.97;;;25.90;99.90;;;;;;4915950;29;20548;-76
2022/08/04 16:27:38;;;;;;;3.30;3.00;;;25.80;99.90;;;;;;4930314;23;20502;-69
2022/08/04 16:30:06;;;;;;;2.77;2.57;;;25.70;99.90;;;;;;4910497;29;20988;-69
2022/08/04 16:32:41;;;;;;;2.60;2.50;;;25.60;99.90;;;;;;4914836;29;20477;-71
2022/08/04 16:35:24;;;;;;;2.00;2.00;;;25.60;99.90;;;;;;4909775;29;20468;-68
2022/08/04 16:37:54;;;;;;;2.73;2.63;;;25.50;99.90;;;;;;4897148;29;20517;-68
2022/08/04 16:40:43;;;;;;;2.20;2.20;;;25.50;99.90;;;;;;4896381;29;21033;-69
2022/08/04 16:43:13;;;;;;;2.60;2.60;;;25.60;99.90;;;;;;4894439;29;20471;-70
2022/08/04 16:45:42;;;;;;;2.50;2.30;;;25.60;99.90;;;;;;4903859;29;20501;-69
2022/08/04 16:48:10;;;;;;;2.23;2.13;;;25.70;99.90;;;;;;4893675;29;21007;-70
2022/08/04 16:50:47;;;;;;;2.53;2.40;;;25.80;99.90;;;;;;4898445;29;20499;-70
2022/08/04 16:53:16;;;;;;;3.13;3.03;;;25.90;99.90;;;;;;4896242;29;20909;-71
2022/08/04 16:55:46;;;;;;;2.50;2.40;;;25.90;99.90;;;;;;4892473;29;20482;-69
2022/08/04 16:58:15;;;;;;;2.77;2.50;;;26.00;99.90;;;;;;4890584;29;20559;-70
2022/08/04 17:00:42;;;;;;;3.47;3.17;;;26.00;99.90;;;;;;4897121;29;20468;-70
2022/08/04 17:03:11;;;;;;;2.40;2.40;;;26.10;99.90;;;;;;4903389;29;20467;-70
2022/08/04 17:05:40;;;;;;;2.20;2.10;;;26.20;99.90;;;;;;4898877;29;20561;-71
2022/08/04 17:08:08;;;;;;;4.80;2.70;;;26.30;99.90;;;;;;4896205;29;20500;-70
2022/08/04 17:10:38;;;;;;;2.37;1.90;;;26.40;99.90;;;;;;4894809;29;20929;-70
2022/08/04 17:16:01;;;;;;;2.67;2.50;;;26.30;99.90;;;;;;5121515;27;20543;-70
2022/08/04 17:18:30;;;;;;;2.73;2.63;;;26.30;99.90;;;;;;5108855;28;20473;-69
2022/08/04 17:21:00;;;;;;;2.90;2.70;;;26.00;99.90;;;;;;5109085;28;20916;-71